sensor_id;sensor_type;location;lat;lon;timestamp;P1;durP1;ratioP1;P2;durP2;ratioP2
66371;SDS011;53168;51.146;17.120;2023-06-22T00:02:04;19.97;;;19.97;;
66371;SDS011;53168;51.146;17.120;2023-06-22T00:04:38;20.48;;;20.48;;
66371;SDS011;53168;51.146;17.120;2023-06-22T00:07:11;19.91;;;19.90;;
66371;SDS011;53168;51.146;17.120;2023-06-22T00:09:45;21.09;;;21.06;;
66371;SDS011;53168;51.146;17.120;2023-06-22T00:12:18;20.39;;;20.39;;
66371;SDS011;53168;51.146;17.120;2023-06-22T00:14:52;20.22;;;20.21;;
66371;SDS011;53168;51.146;17.120;2023-06-22T00:17:26;20.47;;;20.47;;
66371;SDS011;53168;51.146;17.120;2023-06-22T00:19:59;21.46;;;21.39;;
66371;SDS011;53168;51.146;17.120;2023-06-22T00:22:37;20.93;;;20.93;;
66371;SDS011;53168;51.146;17.120;2023-06-22T00:25:12;21.08;;;21.06;;
66371;SDS011;53168;51.146;17.120;2023-06-22T00:27:46;20.46;;;20.44;;
66371;SDS011;53168;51.146;17.120;2023-06-22T00:30:19;22.02;;;21.98;;
66371;SDS011;53168;51.146;17.120;2023-06-22T00:32:53;20.66;;;20.66;;
66371;SDS011;53168;51.146;17.120;2023-06-22T00:35:28;21.37;;;21.32;;
66371;SDS011;53168;51.146;17.120;2023-06-22T00:38:02;21.78;;;21.76;;
66371;SDS011;53168;51.146;17.120;2023-06-22T00:40:35;21.94;;;21.94;;
66371;SDS011;53168;51.146;17.120;2023-06-22T00:43:09;22.06;;;22.03;;
66371;SDS011;53168;51.146;17.120;2023-06-22T00:45:42;21.68;;;21.57;;
66371;SDS011;53168;51.146;17.120;2023-06-22T00:48:15;21.85;;;21.75;;
66371;SDS011;53168;51.146;17.120;2023-06-22T00:50:50;22.52;;;22.52;;
66371;SDS011;53168;51.146;17.120;2023-06-22T00:53:25;23.00;;;22.99;;
66371;SDS011;53168;51.146;17.120;2023-06-22T00:55:59;22.40;;;22.38;;
66371;SDS011;53168;51.146;17.120;2023-06-22T00:58:33;22.31;;;22.24;;
66371;SDS011;53168;51.146;17.120;2023-06-22T01:01:11;22.13;;;22.13;;
66371;SDS011;53168;51.146;17.120;2023-06-22T01:03:44;22.51;;;22.51;;
66371;SDS011;53168;51.146;17.120;2023-06-22T01:06:21;22.18;;;22.17;;
66371;SDS011;53168;51.146;17.120;2023-06-22T01:09:10;22.29;;;22.20;;
66371;SDS011;53168;51.146;17.120;2023-06-22T01:12:00;22.21;;;22.19;;
66371;SDS011;53168;51.146;17.120;2023-06-22T01:14:40;21.84;;;21.76;;
66371;SDS011;53168;51.146;17.120;2023-06-22T01:17:22;21.95;;;21.95;;
66371;SDS011;53168;51.146;17.120;2023-06-22T01:19:59;21.81;;;21.76;;
66371;SDS011;53168;51.146;17.120;2023-06-22T01:22:43;21.43;;;21.42;;
66371;SDS011;53168;51.146;17.120;2023-06-22T01:25:45;21.75;;;21.52;;
66371;SDS011;53168;51.146;17.120;2023-06-22T01:28:42;21.59;;;21.59;;
66371;SDS011;53168;51.146;17.120;2023-06-22T01:31:19;20.80;;;20.79;;
66371;SDS011;53168;51.146;17.120;2023-06-22T01:34:01;21.32;;;21.32;;
66371;SDS011;53168;51.146;17.120;2023-06-22T01:36:38;20.83;;;20.82;;
66371;SDS011;53168;51.146;17.120;2023-06-22T01:39:14;21.90;;;21.76;;
66371;SDS011;53168;51.146;17.120;2023-06-22T01:41:53;20.58;;;20.58;;
66371;SDS011;53168;51.146;17.120;2023-06-22T01:44:28;21.06;;;21.06;;
66371;SDS011;53168;51.146;17.120;2023-06-22T01:47:04;20.49;;;20.49;;
66371;SDS011;53168;51.146;17.120;2023-06-22T01:49:39;21.12;;;21.11;;
66371;SDS011;53168;51.146;17.120;2023-06-22T01:52:13;21.13;;;21.10;;
66371;SDS011;53168;51.146;17.120;2023-06-22T01:54:47;21.06;;;21.06;;
66371;SDS011;53168;51.146;17.120;2023-06-22T01:57:21;20.99;;;20.99;;
66371;SDS011;53168;51.146;17.120;2023-06-22T01:59:59;21.08;;;21.07;;
66371;SDS011;53168;51.146;17.120;2023-06-22T02:02:44;22.04;;;21.80;;
66371;SDS011;53168;51.146;17.120;2023-06-22T02:05:33;22.53;;;22.47;;
66371;SDS011;53168;51.146;17.120;2023-06-22T02:08:17;20.47;;;20.44;;
66371;SDS011;53168;51.146;17.120;2023-06-22T02:11:00;20.07;;;19.96;;
66371;SDS011;53168;51.146;17.120;2023-06-22T02:13:38;19.46;;;19.38;;
66371;SDS011;53168;51.146;17.120;2023-06-22T02:16:13;21.78;;;21.59;;
66371;SDS011;53168;51.146;17.120;2023-06-22T02:18:50;21.65;;;21.61;;
66371;SDS011;53168;51.146;17.120;2023-06-22T02:21:26;21.89;;;21.83;;
66371;SDS011;53168;51.146;17.120;2023-06-22T02:23:59;21.75;;;21.65;;
66371;SDS011;53168;51.146;17.120;2023-06-22T02:26:33;21.76;;;21.75;;
66371;SDS011;53168;51.146;17.120;2023-06-22T02:29:09;21.98;;;21.94;;
66371;SDS011;53168;51.146;17.120;2023-06-22T02:31:44;21.21;;;21.16;;
66371;SDS011;53168;51.146;17.120;2023-06-22T02:34:18;22.51;;;22.38;;
66371;SDS011;53168;51.146;17.120;2023-06-22T02:36:52;21.55;;;21.54;;
66371;SDS011;53168;51.146;17.120;2023-06-22T02:39:30;22.33;;;22.12;;
66371;SDS011;53168;51.146;17.120;2023-06-22T02:42:11;22.36;;;22.34;;
66371;SDS011;53168;51.146;17.120;2023-06-22T02:44:50;21.92;;;21.92;;
66371;SDS011;53168;51.146;17.120;2023-06-22T02:47:23;22.56;;;22.55;;
66371;SDS011;53168;51.146;17.120;2023-06-22T02:49:57;22.48;;;22.28;;
66371;SDS011;53168;51.146;17.120;2023-06-22T02:52:34;22.28;;;22.26;;
66371;SDS011;53168;51.146;17.120;2023-06-22T02:55:09;22.89;;;22.76;;
66371;SDS011;53168;51.146;17.120;2023-06-22T02:57:43;22.50;;;22.50;;
66371;SDS011;53168;51.146;17.120;2023-06-22T03:00:22;22.26;;;22.26;;
66371;SDS011;53168;51.146;17.120;2023-06-22T03:03:01;21.71;;;21.70;;
66371;SDS011;53168;51.146;17.120;2023-06-22T03:05:38;23.00;;;22.96;;
66371;SDS011;53168;51.146;17.120;2023-06-22T03:08:11;22.72;;;22.72;;
66371;SDS011;53168;51.146;17.120;2023-06-22T03:10:45;22.81;;;22.67;;
66371;SDS011;53168;51.146;17.120;2023-06-22T03:13:19;22.92;;;22.83;;
66371;SDS011;53168;51.146;17.120;2023-06-22T03:15:53;23.15;;;23.05;;
66371;SDS011;53168;51.146;17.120;2023-06-22T03:18:28;23.27;;;23.27;;
66371;SDS011;53168;51.146;17.120;2023-06-22T03:21:02;23.13;;;23.06;;
66371;SDS011;53168;51.146;17.120;2023-06-22T03:23:36;22.18;;;22.14;;
66371;SDS011;53168;51.146;17.120;2023-06-22T03:26:10;22.50;;;22.50;;
66371;SDS011;53168;51.146;17.120;2023-06-22T03:28:47;20.72;;;20.57;;
66371;SDS011;53168;51.146;17.120;2023-06-22T03:31:20;22.11;;;22.10;;
66371;SDS011;53168;51.146;17.120;2023-06-22T03:33:55;23.07;;;23.06;;
66371;SDS011;53168;51.146;17.120;2023-06-22T03:36:28;23.26;;;23.26;;
66371;SDS011;53168;51.146;17.120;2023-06-22T03:39:03;22.51;;;22.44;;
66371;SDS011;53168;51.146;17.120;2023-06-22T03:41:37;22.84;;;22.74;;
66371;SDS011;53168;51.146;17.120;2023-06-22T03:44:11;23.03;;;23.00;;
66371;SDS011;53168;51.146;17.120;2023-06-22T03:46:45;22.10;;;22.10;;
66371;SDS011;53168;51.146;17.120;2023-06-22T03:49:20;22.51;;;22.45;;
66371;SDS011;53168;51.146;17.120;2023-06-22T03:51:54;22.34;;;22.31;;
66371;SDS011;53168;51.146;17.120;2023-06-22T03:54:30;22.52;;;22.48;;
66371;SDS011;53168;51.146;17.120;2023-06-22T03:57:05;22.97;;;22.85;;
66371;SDS011;53168;51.146;17.120;2023-06-22T03:59:40;23.03;;;23.01;;
66371;SDS011;53168;51.146;17.120;2023-06-22T04:02:14;22.89;;;22.89;;
66371;SDS011;53168;51.146;17.120;2023-06-22T04:04:47;23.73;;;23.73;;
66371;SDS011;53168;51.146;17.120;2023-06-22T04:07:22;24.25;;;24.13;;
66371;SDS011;53168;51.146;17.120;2023-06-22T04:09:55;24.09;;;24.01;;
66371;SDS011;53168;51.146;17.120;2023-06-22T04:12:29;24.73;;;24.67;;
66371;SDS011;53168;51.146;17.120;2023-06-22T04:15:03;24.38;;;24.24;;
66371;SDS011;53168;51.146;17.120;2023-06-22T04:17:40;26.02;;;25.85;;
66371;SDS011;53168;51.146;17.120;2023-06-22T04:20:14;24.66;;;24.61;;
66371;SDS011;53168;51.146;17.120;2023-06-22T04:22:48;23.97;;;23.94;;
66371;SDS011;53168;51.146;17.120;2023-06-22T04:25:21;25.49;;;25.18;;
66371;SDS011;53168;51.146;17.120;2023-06-22T04:27:55;24.88;;;24.71;;
66371;SDS011;53168;51.146;17.120;2023-06-22T04:30:33;24.48;;;24.48;;
66371;SDS011;53168;51.146;17.120;2023-06-22T04:33:08;24.65;;;24.64;;
66371;SDS011;53168;51.146;17.120;2023-06-22T04:35:44;24.45;;;24.33;;
66371;SDS011;53168;51.146;17.120;2023-06-22T04:38:18;24.45;;;24.40;;
66371;SDS011;53168;51.146;17.120;2023-06-22T04:40:54;24.58;;;24.55;;
66371;SDS011;53168;51.146;17.120;2023-06-22T04:43:30;25.03;;;25.00;;
66371;SDS011;53168;51.146;17.120;2023-06-22T04:46:05;26.21;;;26.18;;
66371;SDS011;53168;51.146;17.120;2023-06-22T04:48:39;25.40;;;25.38;;
66371;SDS011;53168;51.146;17.120;2023-06-22T04:51:13;25.36;;;25.24;;
66371;SDS011;53168;51.146;17.120;2023-06-22T04:53:51;25.85;;;25.64;;
66371;SDS011;53168;51.146;17.120;2023-06-22T04:56:30;26.17;;;26.07;;
66371;SDS011;53168;51.146;17.120;2023-06-22T04:59:03;25.86;;;25.77;;
66371;SDS011;53168;51.146;17.120;2023-06-22T05:01:37;26.15;;;26.08;;
66371;SDS011;53168;51.146;17.120;2023-06-22T05:04:11;25.71;;;25.66;;
66371;SDS011;53168;51.146;17.120;2023-06-22T05:06:46;25.99;;;25.93;;
66371;SDS011;53168;51.146;17.120;2023-06-22T05:09:20;26.26;;;26.22;;
66371;SDS011;53168;51.146;17.120;2023-06-22T05:11:55;25.69;;;25.66;;
66371;SDS011;53168;51.146;17.120;2023-06-22T05:14:32;25.44;;;25.37;;
66371;SDS011;53168;51.146;17.120;2023-06-22T05:17:07;23.96;;;23.89;;
66371;SDS011;53168;51.146;17.120;2023-06-22T05:19:44;23.52;;;23.48;;
66371;SDS011;53168;51.146;17.120;2023-06-22T05:22:18;23.66;;;23.57;;
66371;SDS011;53168;51.146;17.120;2023-06-22T05:25:00;22.60;;;22.23;;
66371;SDS011;53168;51.146;17.120;2023-06-22T05:27:39;22.05;;;22.00;;
66371;SDS011;53168;51.146;17.120;2023-06-22T05:30:13;20.69;;;20.52;;
66371;SDS011;53168;51.146;17.120;2023-06-22T05:32:51;19.43;;;19.42;;
66371;SDS011;53168;51.146;17.120;2023-06-22T05:35:38;18.29;;;18.19;;
66371;SDS011;53168;51.146;17.120;2023-06-22T05:38:12;18.34;;;18.34;;
66371;SDS011;53168;51.146;17.120;2023-06-22T05:40:48;18.38;;;18.38;;
66371;SDS011;53168;51.146;17.120;2023-06-22T05:43:29;17.18;;;17.18;;
66371;SDS011;53168;51.146;17.120;2023-06-22T05:46:03;17.59;;;17.46;;
66371;SDS011;53168;51.146;17.120;2023-06-22T05:48:37;17.25;;;17.13;;
66371;SDS011;53168;51.146;17.120;2023-06-22T05:51:19;17.11;;;17.08;;
66371;SDS011;53168;51.146;17.120;2023-06-22T05:53:52;16.37;;;16.34;;
66371;SDS011;53168;51.146;17.120;2023-06-22T05:56:26;15.41;;;15.37;;
66371;SDS011;53168;51.146;17.120;2023-06-22T05:59:00;16.03;;;16.03;;
66371;SDS011;53168;51.146;17.120;2023-06-22T06:01:34;16.97;;;16.97;;
66371;SDS011;53168;51.146;17.120;2023-06-22T06:04:09;16.53;;;16.53;;
66371;SDS011;53168;51.146;17.120;2023-06-22T06:06:44;17.73;;;17.73;;
66371;SDS011;53168;51.146;17.120;2023-06-22T06:09:19;18.31;;;18.31;;
66371;SDS011;53168;51.146;17.120;2023-06-22T06:11:52;17.31;;;17.28;;
66371;SDS011;53168;51.146;17.120;2023-06-22T06:14:28;16.96;;;16.95;;
66371;SDS011;53168;51.146;17.120;2023-06-22T06:17:03;17.30;;;17.28;;
66371;SDS011;53168;51.146;17.120;2023-06-22T06:19:39;18.76;;;18.76;;
66371;SDS011;53168;51.146;17.120;2023-06-22T06:22:15;18.74;;;18.72;;
66371;SDS011;53168;51.146;17.120;2023-06-22T06:24:50;19.38;;;19.35;;
66371;SDS011;53168;51.146;17.120;2023-06-22T06:27:24;19.83;;;19.80;;
66371;SDS011;53168;51.146;17.120;2023-06-22T06:30:02;18.78;;;18.76;;
66371;SDS011;53168;51.146;17.120;2023-06-22T06:32:39;18.46;;;18.44;;
66371;SDS011;53168;51.146;17.120;2023-06-22T06:35:15;17.62;;;17.62;;
66371;SDS011;53168;51.146;17.120;2023-06-22T06:37:49;18.87;;;18.85;;
66371;SDS011;53168;51.146;17.120;2023-06-22T06:40:23;20.48;;;20.43;;
66371;SDS011;53168;51.146;17.120;2023-06-22T06:42:58;18.13;;;18.07;;
66371;SDS011;53168;51.146;17.120;2023-06-22T06:45:32;18.47;;;18.42;;
66371;SDS011;53168;51.146;17.120;2023-06-22T06:48:06;19.79;;;19.79;;
66371;SDS011;53168;51.146;17.120;2023-06-22T06:50:42;17.51;;;17.51;;
66371;SDS011;53168;51.146;17.120;2023-06-22T06:53:16;18.84;;;18.77;;
66371;SDS011;53168;51.146;17.120;2023-06-22T06:55:54;18.32;;;18.31;;
66371;SDS011;53168;51.146;17.120;2023-06-22T07:09:04;16.68;;;16.61;;
66371;SDS011;53168;51.146;17.120;2023-06-22T07:51:50;14.87;;;14.83;;
66371;SDS011;53168;51.146;17.120;2023-06-22T07:54:25;14.10;;;14.10;;
66371;SDS011;53168;51.146;17.120;2023-06-22T07:56:59;16.05;;;16.05;;
66371;SDS011;53168;51.146;17.120;2023-06-22T07:59:35;15.40;;;15.40;;
66371;SDS011;53168;51.146;17.120;2023-06-22T08:05:24;14.67;;;14.66;;
66371;SDS011;53168;51.146;17.120;2023-06-22T08:07:59;14.93;;;14.93;;
66371;SDS011;53168;51.146;17.120;2023-06-22T08:10:34;14.86;;;14.86;;
66371;SDS011;53168;51.146;17.120;2023-06-22T08:13:09;14.66;;;14.66;;
66371;SDS011;53168;51.146;17.120;2023-06-22T08:15:43;13.28;;;13.28;;
66371;SDS011;53168;51.146;17.120;2023-06-22T08:18:18;15.15;;;15.15;;
66371;SDS011;53168;51.146;17.120;2023-06-22T08:20:53;15.66;;;15.66;;
66371;SDS011;53168;51.146;17.120;2023-06-22T08:23:26;15.40;;;15.40;;
66371;SDS011;53168;51.146;17.120;2023-06-22T08:26:04;15.05;;;15.05;;
66371;SDS011;53168;51.146;17.120;2023-06-22T08:28:38;13.88;;;13.88;;
66371;SDS011;53168;51.146;17.120;2023-06-22T08:31:12;14.79;;;14.79;;
66371;SDS011;53168;51.146;17.120;2023-06-22T08:33:46;14.78;;;14.78;;
66371;SDS011;53168;51.146;17.120;2023-06-22T08:36:21;14.29;;;14.29;;
66371;SDS011;53168;51.146;17.120;2023-06-22T08:38:58;13.44;;;13.44;;
66371;SDS011;53168;51.146;17.120;2023-06-22T08:41:32;12.04;;;12.04;;
66371;SDS011;53168;51.146;17.120;2023-06-22T08:44:06;12.93;;;12.93;;
66371;SDS011;53168;51.146;17.120;2023-06-22T08:46:40;12.47;;;12.47;;
66371;SDS011;53168;51.146;17.120;2023-06-22T08:49:14;13.71;;;13.71;;
66371;SDS011;53168;51.146;17.120;2023-06-22T08:51:52;12.18;;;12.18;;
66371;SDS011;53168;51.146;17.120;2023-06-22T08:54:27;11.33;;;11.33;;
66371;SDS011;53168;51.146;17.120;2023-06-22T08:57:06;11.13;;;11.13;;
66371;SDS011;53168;51.146;17.120;2023-06-22T08:59:40;12.19;;;12.19;;
66371;SDS011;53168;51.146;17.120;2023-06-22T09:02:14;12.16;;;12.16;;
66371;SDS011;53168;51.146;17.120;2023-06-22T09:04:49;11.16;;;11.16;;
66371;SDS011;53168;51.146;17.120;2023-06-22T09:07:25;11.80;;;11.80;;
66371;SDS011;53168;51.146;17.120;2023-06-22T09:09:59;12.23;;;12.23;;
66371;SDS011;53168;51.146;17.120;2023-06-22T09:12:35;12.11;;;12.11;;
66371;SDS011;53168;51.146;17.120;2023-06-22T09:15:10;11.92;;;11.92;;
66371;SDS011;53168;51.146;17.120;2023-06-22T09:17:47;10.61;;;10.61;;
66371;SDS011;53168;51.146;17.120;2023-06-22T09:20:23;11.96;;;11.96;;
66371;SDS011;53168;51.146;17.120;2023-06-22T09:23:03;12.11;;;12.11;;
66371;SDS011;53168;51.146;17.120;2023-06-22T09:25:37;11.56;;;11.56;;
66371;SDS011;53168;51.146;17.120;2023-06-22T09:28:11;12.05;;;12.05;;
66371;SDS011;53168;51.146;17.120;2023-06-22T09:30:46;12.47;;;12.47;;
66371;SDS011;53168;51.146;17.120;2023-06-22T09:36:12;11.79;;;11.79;;
66371;SDS011;53168;51.146;17.120;2023-06-22T09:38:52;11.17;;;11.17;;
66371;SDS011;53168;51.146;17.120;2023-06-22T09:44:26;9.30;;;9.30;;
66371;SDS011;53168;51.146;17.120;2023-06-22T09:47:17;11.37;;;11.37;;
66371;SDS011;53168;51.146;17.120;2023-06-22T09:49:52;11.55;;;11.55;;
66371;SDS011;53168;51.146;17.120;2023-06-22T09:52:33;12.19;;;12.19;;
66371;SDS011;53168;51.146;17.120;2023-06-22T09:55:17;10.20;;;10.20;;
66371;SDS011;53168;51.146;17.120;2023-06-22T09:57:54;11.29;;;11.29;;
66371;SDS011;53168;51.146;17.120;2023-06-22T10:00:29;10.95;;;10.95;;
66371;SDS011;53168;51.146;17.120;2023-06-22T10:32:03;10.93;;;10.93;;
66371;SDS011;53168;51.146;17.120;2023-06-22T10:34:49;10.40;;;10.40;;
66371;SDS011;53168;51.146;17.120;2023-06-22T10:37:28;10.17;;;10.17;;
66371;SDS011;53168;51.146;17.120;2023-06-22T10:40:05;10.51;;;10.51;;
66371;SDS011;53168;51.146;17.120;2023-06-22T10:45:58;9.32;;;9.32;;
66371;SDS011;53168;51.146;17.120;2023-06-22T10:48:32;9.44;;;9.44;;
66371;SDS011;53168;51.146;17.120;2023-06-22T10:51:15;8.98;;;8.98;;
66371;SDS011;53168;51.146;17.120;2023-06-22T10:54:29;8.74;;;8.74;;
66371;SDS011;53168;51.146;17.120;2023-06-22T10:57:12;8.66;;;8.66;;
66371;SDS011;53168;51.146;17.120;2023-06-22T10:59:47;8.93;;;8.93;;
66371;SDS011;53168;51.146;17.120;2023-06-22T11:02:22;8.80;;;8.80;;
66371;SDS011;53168;51.146;17.120;2023-06-22T11:04:58;8.58;;;8.58;;
66371;SDS011;53168;51.146;17.120;2023-06-22T11:07:33;9.75;;;9.75;;
66371;SDS011;53168;51.146;17.120;2023-06-22T11:10:12;9.78;;;9.78;;
66371;SDS011;53168;51.146;17.120;2023-06-22T11:12:46;8.73;;;8.73;;
66371;SDS011;53168;51.146;17.120;2023-06-22T11:15:22;9.17;;;9.17;;
66371;SDS011;53168;51.146;17.120;2023-06-22T11:18:01;8.04;;;8.04;;
66371;SDS011;53168;51.146;17.120;2023-06-22T11:20:37;9.58;;;9.58;;
66371;SDS011;53168;51.146;17.120;2023-06-22T11:23:15;9.51;;;9.51;;
66371;SDS011;53168;51.146;17.120;2023-06-22T11:25:49;9.36;;;9.36;;
66371;SDS011;53168;51.146;17.120;2023-06-22T11:28:33;8.86;;;8.86;;
66371;SDS011;53168;51.146;17.120;2023-06-22T11:31:10;9.03;;;9.03;;
66371;SDS011;53168;51.146;17.120;2023-06-22T11:34:07;8.68;;;8.68;;
66371;SDS011;53168;51.146;17.120;2023-06-22T11:36:42;8.66;;;8.66;;
66371;SDS011;53168;51.146;17.120;2023-06-22T11:39:17;7.95;;;7.95;;
66371;SDS011;53168;51.146;17.120;2023-06-22T11:42:14;9.99;;;9.99;;
66371;SDS011;53168;51.146;17.120;2023-06-22T11:45:43;9.33;;;9.33;;
66371;SDS011;53168;51.146;17.120;2023-06-22T11:49:12;7.76;;;7.76;;
66371;SDS011;53168;51.146;17.120;2023-06-22T11:51:46;9.28;;;9.28;;
66371;SDS011;53168;51.146;17.120;2023-06-22T11:54:20;9.35;;;9.35;;
66371;SDS011;53168;51.146;17.120;2023-06-22T11:56:54;8.58;;;8.58;;
66371;SDS011;53168;51.146;17.120;2023-06-22T11:59:27;8.82;;;8.82;;
66371;SDS011;53168;51.146;17.120;2023-06-22T12:02:01;8.03;;;8.03;;
66371;SDS011;53168;51.146;17.120;2023-06-22T12:04:43;7.84;;;7.84;;
66371;SDS011;53168;51.146;17.120;2023-06-22T12:07:37;8.39;;;8.39;;
66371;SDS011;53168;51.146;17.120;2023-06-22T12:10:11;7.27;;;7.27;;
66371;SDS011;53168;51.146;17.120;2023-06-22T12:12:47;7.80;;;7.80;;
66371;SDS011;53168;51.146;17.120;2023-06-22T12:18:36;7.64;;;7.64;;
66371;SDS011;53168;51.146;17.120;2023-06-22T12:21:14;8.52;;;8.52;;
66371;SDS011;53168;51.146;17.120;2023-06-22T12:23:48;8.30;;;8.30;;
66371;SDS011;53168;51.146;17.120;2023-06-22T12:26:25;7.81;;;7.81;;
66371;SDS011;53168;51.146;17.120;2023-06-22T12:29:03;8.24;;;8.24;;
66371;SDS011;53168;51.146;17.120;2023-06-22T12:31:40;8.24;;;8.24;;
66371;SDS011;53168;51.146;17.120;2023-06-22T12:34:14;8.75;;;8.75;;
66371;SDS011;53168;51.146;17.120;2023-06-22T12:36:48;8.43;;;8.43;;
66371;SDS011;53168;51.146;17.120;2023-06-22T12:39:23;8.92;;;8.92;;
66371;SDS011;53168;51.146;17.120;2023-06-22T12:41:57;8.74;;;8.74;;
66371;SDS011;53168;51.146;17.120;2023-06-22T12:44:31;8.18;;;8.18;;
66371;SDS011;53168;51.146;17.120;2023-06-22T12:47:05;9.01;;;9.01;;
66371;SDS011;53168;51.146;17.120;2023-06-22T12:49:40;8.86;;;8.86;;
66371;SDS011;53168;51.146;17.120;2023-06-22T12:52:14;8.13;;;8.13;;
66371;SDS011;53168;51.146;17.120;2023-06-22T12:54:48;7.95;;;7.95;;
66371;SDS011;53168;51.146;17.120;2023-06-22T12:57:24;7.99;;;7.99;;
66371;SDS011;53168;51.146;17.120;2023-06-22T12:59:58;6.76;;;6.76;;
66371;SDS011;53168;51.146;17.120;2023-06-22T13:02:34;6.24;;;6.24;;
66371;SDS011;53168;51.146;17.120;2023-06-22T13:05:12;6.48;;;6.48;;
66371;SDS011;53168;51.146;17.120;2023-06-22T13:07:46;6.82;;;6.82;;
66371;SDS011;53168;51.146;17.120;2023-06-22T13:10:20;6.53;;;6.53;;
66371;SDS011;53168;51.146;17.120;2023-06-22T13:12:53;7.99;;;7.99;;
66371;SDS011;53168;51.146;17.120;2023-06-22T13:15:30;5.93;;;5.93;;
66371;SDS011;53168;51.146;17.120;2023-06-22T13:18:04;6.48;;;6.48;;
66371;SDS011;53168;51.146;17.120;2023-06-22T13:20:38;6.17;;;6.17;;
66371;SDS011;53168;51.146;17.120;2023-06-22T13:23:13;6.90;;;6.90;;
66371;SDS011;53168;51.146;17.120;2023-06-22T13:25:47;7.46;;;7.46;;
66371;SDS011;53168;51.146;17.120;2023-06-22T13:28:21;6.86;;;6.86;;
66371;SDS011;53168;51.146;17.120;2023-06-22T13:30:57;6.53;;;6.53;;
66371;SDS011;53168;51.146;17.120;2023-06-22T13:33:32;6.73;;;6.73;;
66371;SDS011;53168;51.146;17.120;2023-06-22T13:36:10;6.11;;;6.11;;
66371;SDS011;53168;51.146;17.120;2023-06-22T13:38:45;6.84;;;6.84;;
66371;SDS011;53168;51.146;17.120;2023-06-22T13:41:19;6.48;;;6.48;;
66371;SDS011;53168;51.146;17.120;2023-06-22T13:43:55;6.59;;;6.59;;
66371;SDS011;53168;51.146;17.120;2023-06-22T13:46:34;6.82;;;6.82;;
66371;SDS011;53168;51.146;17.120;2023-06-22T13:51:58;6.32;;;6.32;;
66371;SDS011;53168;51.146;17.120;2023-06-22T13:54:39;6.88;;;6.88;;
66371;SDS011;53168;51.146;17.120;2023-06-22T13:57:35;5.72;;;5.72;;
66371;SDS011;53168;51.146;17.120;2023-06-22T14:03:44;6.84;;;6.84;;
66371;SDS011;53168;51.146;17.120;2023-06-22T14:06:18;6.16;;;6.16;;
66371;SDS011;53168;51.146;17.120;2023-06-22T14:08:53;7.14;;;7.14;;
66371;SDS011;53168;51.146;17.120;2023-06-22T14:11:32;7.51;;;7.51;;
66371;SDS011;53168;51.146;17.120;2023-06-22T14:14:36;6.79;;;6.79;;
66371;SDS011;53168;51.146;17.120;2023-06-22T14:17:19;6.71;;;6.71;;
66371;SDS011;53168;51.146;17.120;2023-06-22T14:20:06;6.37;;;6.37;;
66371;SDS011;53168;51.146;17.120;2023-06-22T14:26:09;6.67;;;6.67;;
66371;SDS011;53168;51.146;17.120;2023-06-22T14:29:36;6.76;;;6.76;;
66371;SDS011;53168;51.146;17.120;2023-06-22T14:36:00;5.34;;;5.34;;
66371;SDS011;53168;51.146;17.120;2023-06-22T14:38:59;6.23;;;6.23;;
66371;SDS011;53168;51.146;17.120;2023-06-22T14:42:00;6.31;;;6.31;;
66371;SDS011;53168;51.146;17.120;2023-06-22T14:44:52;6.70;;;6.70;;
66371;SDS011;53168;51.146;17.120;2023-06-22T14:47:33;6.63;;;6.63;;
66371;SDS011;53168;51.146;17.120;2023-06-22T14:50:24;6.82;;;6.82;;
66371;SDS011;53168;51.146;17.120;2023-06-22T14:53:53;6.48;;;6.48;;
66371;SDS011;53168;51.146;17.120;2023-06-22T14:57:12;6.21;;;6.21;;
66371;SDS011;53168;51.146;17.120;2023-06-22T15:04:26;6.93;;;6.93;;
66371;SDS011;53168;51.146;17.120;2023-06-22T15:07:21;6.87;;;6.87;;
66371;SDS011;53168;51.146;17.120;2023-06-22T15:10:07;6.25;;;6.25;;
66371;SDS011;53168;51.146;17.120;2023-06-22T15:12:42;6.03;;;6.03;;
66371;SDS011;53168;51.146;17.120;2023-06-22T15:15:16;6.27;;;6.27;;
66371;SDS011;53168;51.146;17.120;2023-06-22T15:17:53;6.48;;;6.48;;
66371;SDS011;53168;51.146;17.120;2023-06-22T15:20:43;6.91;;;6.91;;
66371;SDS011;53168;51.146;17.120;2023-06-22T15:23:24;6.39;;;6.39;;
66371;SDS011;53168;51.146;17.120;2023-06-22T15:30:15;6.68;;;6.68;;
66371;SDS011;53168;51.146;17.120;2023-06-22T15:36:35;6.71;;;6.71;;
66371;SDS011;53168;51.146;17.120;2023-06-22T15:43:01;6.41;;;6.41;;
66371;SDS011;53168;51.146;17.120;2023-06-22T15:46:07;6.51;;;6.51;;
66371;SDS011;53168;51.146;17.120;2023-06-22T15:49:00;6.41;;;6.41;;
66371;SDS011;53168;51.146;17.120;2023-06-22T15:51:38;6.51;;;6.51;;
66371;SDS011;53168;51.146;17.120;2023-06-22T15:55:04;6.63;;;6.63;;
66371;SDS011;53168;51.146;17.120;2023-06-22T15:58:06;7.18;;;7.18;;
66371;SDS011;53168;51.146;17.120;2023-06-22T16:00:56;6.85;;;6.85;;
66371;SDS011;53168;51.146;17.120;2023-06-22T16:04:04;7.15;;;7.15;;
66371;SDS011;53168;51.146;17.120;2023-06-22T16:06:44;6.77;;;6.77;;
66371;SDS011;53168;51.146;17.120;2023-06-22T16:09:29;6.13;;;6.13;;
66371;SDS011;53168;51.146;17.120;2023-06-22T16:15:57;6.27;;;6.27;;
66371;SDS011;53168;51.146;17.120;2023-06-22T16:23:25;6.94;;;6.94;;
66371;SDS011;53168;51.146;17.120;2023-06-22T16:29:36;6.91;;;6.91;;
66371;SDS011;53168;51.146;17.120;2023-06-22T16:32:10;7.42;;;7.42;;
66371;SDS011;53168;51.146;17.120;2023-06-22T16:35:25;7.47;;;7.47;;
66371;SDS011;53168;51.146;17.120;2023-06-22T16:41:51;7.38;;;7.38;;
66371;SDS011;53168;51.146;17.120;2023-06-22T16:44:43;7.02;;;7.02;;
66371;SDS011;53168;51.146;17.120;2023-06-22T16:47:26;6.86;;;6.86;;
66371;SDS011;53168;51.146;17.120;2023-06-22T16:52:09;7.27;;;7.27;;
66371;SDS011;53168;51.146;17.120;2023-06-22T16:54:43;7.33;;;7.33;;
66371;SDS011;53168;51.146;17.120;2023-06-22T16:57:23;7.21;;;7.21;;
66371;SDS011;53168;51.146;17.120;2023-06-22T16:59:59;8.10;;;8.10;;
66371;SDS011;53168;51.146;17.120;2023-06-22T17:02:42;7.97;;;7.97;;
66371;SDS011;53168;51.146;17.120;2023-06-22T17:05:36;7.11;;;7.11;;
66371;SDS011;53168;51.146;17.120;2023-06-22T17:08:31;7.50;;;7.50;;
66371;SDS011;53168;51.146;17.120;2023-06-22T17:11:12;7.73;;;7.73;;
66371;SDS011;53168;51.146;17.120;2023-06-22T17:13:53;7.70;;;7.70;;
66371;SDS011;53168;51.146;17.120;2023-06-22T17:16:29;8.15;;;8.15;;
66371;SDS011;53168;51.146;17.120;2023-06-22T17:19:05;7.52;;;7.52;;
66371;SDS011;53168;51.146;17.120;2023-06-22T17:21:40;6.83;;;6.83;;
66371;SDS011;53168;51.146;17.120;2023-06-22T17:24:16;7.48;;;7.48;;
66371;SDS011;53168;51.146;17.120;2023-06-22T17:27:06;7.95;;;7.95;;
66371;SDS011;53168;51.146;17.120;2023-06-22T17:30:09;8.00;;;8.00;;
66371;SDS011;53168;51.146;17.120;2023-06-22T17:32:59;7.93;;;7.93;;
66371;SDS011;53168;51.146;17.120;2023-06-22T17:35:53;7.78;;;7.78;;
66371;SDS011;53168;51.146;17.120;2023-06-22T17:39:02;8.00;;;8.00;;
66371;SDS011;53168;51.146;17.120;2023-06-22T17:41:47;8.62;;;8.62;;
66371;SDS011;53168;51.146;17.120;2023-06-22T17:44:46;8.66;;;8.66;;
66371;SDS011;53168;51.146;17.120;2023-06-22T17:47:46;8.60;;;8.60;;
66371;SDS011;53168;51.146;17.120;2023-06-22T17:51:15;8.64;;;8.64;;